Latest Weather Observations for Innisfail Aero

IDQ60801

Issued at 3:51 am EST Tuesday 13 November 2018 (issued every 10 minutes, with the page automatically refreshed every 10 minutes)

About weather observations | Map of weather stations | Latest weather observations for QLD | Other Formats
Station Details ID: 032197 Name: INNISFAIL AERODROME Lat: -17.56 Lon: 146.01 Height: 11.84 m
Data from the previous 72 hours. | See also: Recent months for locations in Queensland
Date/Time
EST
Temp
°C
App
Temp
°C
Dew
Point
°C
Rel
Hum
%
Delta-T
°C
Wind Press
QNH
hPa
Press
MSL
hPa
Rain since
9am
mm
Dir  Spd
km/h
Gust
km/h
Spd
kts
Gust
kts
13/03:30am 20.3 22.0 19.3 94 0.6 SW 9 11 5 6 1013.0 1013.0 0.0
13/03:00am 20.1 21.9 19.6 97 0.3 SW 9 11 5 6 1013.1 1013.1 0.0
13/02:36am 19.9 22.2 19.4 97 0.3 W 6 7 3 4 1013.2 1013.2 0.0
13/02:30am 19.6 21.8 19.1 97 0.3 WNW 6 7 3 4 1013.3 1013.3 0.0
13/02:16am 19.1 21.3 18.3 95 0.5 NW 4 9 2 5 1013.5 1013.5 0.0
13/02:00am 19.4 21.5 18.2 93 0.7 W 4 7 2 4 1013.5 1013.5 0.0
13/01:30am 20.5 23.4 19.8 96 0.4 SSW 4 7 2 4 1013.7 1013.7 0.0
13/01:00am 20.2 22.4 19.2 94 0.6 WNW 6 7 3 4 1013.9 1013.9 0.0
13/12:30am 21.5 23.7 20.5 94 0.6 SW 9 11 5 6 1014.3 1014.3 0.0
13/12:00am 21.0 24.6 19.8 93 0.8 CALM 0 0 0 0 1014.3 1014.3 0.0
 
Date/Time
EST
Temp
°C
App
Temp
°C
Dew
Point
°C
Rel
Hum
%
Delta-T
°C
Wind Press
QNH
hPa
Press
MSL
hPa
Rain since
9am
mm
Dir  Spd
km/h
Gust
km/h
Spd
kts
Gust
kts
12/11:30pm 21.7 23.9 20.3 92 0.9 SW 9 11 5 6 1014.6 1014.6 0.0
12/11:00pm 22.2 24.4 20.5 90 1.1 SW 9 11 5 6 1014.8 1014.8 0.0
12/10:30pm 22.4 24.6 20.3 88 1.4 SW 9 9 5 5 1014.9 1014.9 0.0
12/10:00pm 22.6 24.8 20.5 88 1.4 WSW 9 11 5 6 1014.8 1014.8 0.0
12/09:30pm 22.9 25.1 20.4 86 1.6 SW 9 11 5 6 1014.7 1014.7 0.0
12/09:00pm 23.3 25.9 20.4 84 1.9 WSW 7 9 4 5 1014.5 1014.5 0.0
12/08:30pm 23.8 25.9 20.1 80 2.4 SW 9 11 5 6 1014.4 1014.4 0.0
12/08:00pm 24.6 26.9 19.9 75 3.0 SE 7 9 4 5 1014.1 1014.1 0.0
12/07:30pm 25.1 27.1 19.9 73 3.4 SE 9 11 5 6 1014.1 1014.1 0.0
12/07:00pm 25.1 26.6 19.7 72 3.5 SE 11 15 6 8 1013.9 1013.9 0.0
12/06:30pm 25.3 26.3 19.4 70 3.8 SE 13 19 7 10 1013.5 1013.5 0.0
12/06:00pm 25.8 25.8 19.7 69 3.9 SE 19 26 10 14 1013.2 1013.2 0.0
12/05:30pm 25.8 26.1 20.8 74 3.3 ESE 20 28 11 15 1013.2 1013.2 0.0
12/05:00pm 26.6 26.3 19.2 64 4.8 SE 19 26 10 14 1012.7 1012.7 0.0
12/04:30pm 26.7 26.8 20.3 68 4.2 SE 20 26 11 14 1012.6 1012.6 0.0
12/04:00pm 27.2 27.1 19.5 62 5.0 ESE 19 28 10 15 1012.6 1012.6 0.0
12/03:30pm 27.6 26.5 18.6 58 5.8 ESE 22 33 12 18 1012.7 1012.7 0.0
12/03:00pm 28.8 27.3 18.6 54 6.6 ESE 24 35 13 19 1012.7 1012.7 0.0
12/02:30pm 28.4 27.2 18.5 55 6.3 ESE 22 32 12 17 1012.8 1012.8 0.0
12/02:00pm 27.5 25.6 18.5 58 5.8 ESE 26 39 14 21 1013.2 1013.2 0.0
12/01:30pm 28.9 26.6 20.1 59 5.8 SE 32 46 17 25 1013.5 1013.5 0.0
12/01:00pm 27.8 25.2 19.8 61 5.2 ESE 33 41 18 22 1013.8 1013.8 0.0
12/12:30pm 28.9 26.9 21.1 62 5.2 ESE 33 44 18 24 1014.2 1014.2 0.0
12/12:00pm 26.9 27.0 21.9 74 3.3 ESE 24 35 13 19 1014.4 1014.4 0.0
12/11:30am 27.9 26.8 21.0 66 4.6 ESE 28 35 15 19 1014.5 1014.5 0.0
12/11:00am 29.6 29.7 21.8 63 5.3 ESE 24 33 13 18 1014.8 1014.8 0.0
12/10:30am 28.1 28.0 19.9 61 5.4 ESE 20 30 11 16 1015.1 1015.1 0.0
12/10:00am 27.9 27.3 20.5 64 4.9 SE 24 32 13 17 1015.2 1015.2 0.0
12/09:30am 27.8 27.0 20.1 63 5.0 SE 24 33 13 18 1015.3 1015.3 0.0
12/09:00am 28.3 28.1 20.6 63 5.1 SE 22 30 12 16 1015.3 1015.3 1.8
12/08:30am 27.5 28.8 22.4 73 3.4 SE 19 26 10 14 1015.3 1015.3 1.8
12/08:00am 27.4 28.5 21.9 72 3.7 ESE 19 24 10 13 1015.1 1015.1 1.8
12/07:30am 25.2 28.8 22.3 84 1.9 SSE 7 9 4 5 1014.8 1014.8 1.8
12/07:00am 24.3 27.7 22.0 87 1.5 S 7 9 4 5 1014.6 1014.6 1.8
12/06:30am 23.7 27.0 22.5 93 0.8 SSW 9 11 5 6 1014.2 1014.2 1.8
12/06:00am 22.7 25.7 22.0 96 0.5 S 9 11 5 6 1013.8 1013.8 1.8
12/05:30am 21.7 24.9 21.2 97 0.3 WSW 6 9 3 5 1013.5 1013.5 1.6
12/05:00am 21.9 24.6 21.4 97 0.3 SW 9 13 5 7 1013.3 1013.3 1.6
12/04:30am 21.2 24.4 20.5 96 0.5 WSW 4 7 2 4 1013.2 1013.2 1.4
12/04:00am 21.6 25.0 20.9 96 0.5 NW 4 7 2 4 1013.1 1013.1 1.4
12/03:30am 22.0 24.6 21.2 95 0.5 W 9 11 5 6 1013.0 1013.0 1.4
12/03:00am 21.9 25.0 21.1 95 0.5 WSW 6 13 3 7 1012.9 1012.9 1.2
12/02:30am 22.0 25.4 21.0 94 0.7 WSW 4 7 2 4 1012.8 1012.8 1.2
12/02:00am 22.2 24.8 21.2 94 0.7 SW 9 11 5 6 1013.0 1013.0 1.2
12/01:30am 22.5 24.9 21.5 94 0.7 S 11 17 6 9 1013.3 1013.3 0.6
12/01:00am 22.4 25.1 21.4 94 0.7 SW 9 11 5 6 1013.5 1013.5 0.2
12/12:30am 22.4 24.6 21.2 93 0.8 SSW 11 15 6 8 1014.0 1014.0 0.2
12/12:00am 22.3 25.5 21.3 94 0.7 SW 6 9 3 5 1014.2 1014.2 0.2
 
Date/Time
EST
Temp
°C
App
Temp
°C
Dew
Point
°C
Rel
Hum
%
Delta-T
°C
Wind Press
QNH
hPa
Press
MSL
hPa
Rain since
9am
mm
Dir  Spd
km/h
Gust
km/h
Spd
kts
Gust
kts
11/11:30pm 22.3 25.2 21.1 93 0.8 WSW 7 9 4 5 1014.4 1014.4 0.2
11/11:00pm 22.6 25.6 21.2 92 0.9 WSW 7 9 4 5 1014.7 1014.7 0.2
11/10:30pm 22.8 25.3 21.1 90 1.1 SW 9 13 5 7 1014.8 1014.8 0.2
11/10:00pm 22.9 25.5 21.2 90 1.1 SW 9 11 5 6 1014.6 1014.6 0.2
11/09:30pm 23.1 25.7 21.2 89 1.2 SW 9 13 5 7 1014.4 1014.4 0.2
11/09:00pm 23.2 25.6 21.6 91 1.1 WSW 11 11 6 6 1014.1 1014.1 0.2
11/08:30pm 22.6 25.7 21.1 91 1.0 WSW 6 7 3 4 1013.9 1013.9 0.2
11/08:00pm 23.0 25.9 21.1 89 1.2 SW 7 9 4 5 1013.6 1013.6 0.2
11/07:30pm 23.4 25.8 20.9 86 1.6 SSW 9 9 5 5 1013.2 1013.2 0.2
11/07:00pm 24.0 26.0 20.7 82 2.2 SSE 11 13 6 7 1012.9 1012.9 0.2
11/06:30pm 25.1 25.9 20.6 76 2.9 SE 17 24 9 13 1012.4 1012.4 0.2
11/06:00pm 25.7 25.9 20.5 73 3.4 SE 20 28 11 15 1012.2 1012.2 0.2
11/05:30pm 26.4 25.9 20.7 71 3.7 SE 24 32 13 17 1011.8 1011.8 0.2
11/05:00pm 27.2 27.1 21.5 71 3.8 SE 24 32 13 17 1011.8 1011.8 0.2
11/04:30pm 27.2 27.3 20.3 66 4.5 SE 20 28 11 15 1011.4 1011.4 0.2
11/04:00pm 27.3 26.7 20.6 67 4.4 SE 24 30 13 16 1011.3 1011.3 0.2
11/03:30pm 28.0 27.7 21.1 66 4.6 SE 24 32 13 17 1011.3 1011.3 0.2
11/03:00pm 28.8 27.8 21.3 64 5.0 SE 28 37 15 20 1011.3 1011.3 0.2
11/02:30pm 28.7 28.5 21.2 64 5.0 SE 24 35 13 19 1011.4 1011.4 0.2
11/02:00pm 28.1 26.4 19.9 61 5.4 SE 28 33 15 18 1011.6 1011.6 0.2
11/01:30pm 28.6 28.0 20.6 62 5.3 ESE 24 33 13 18 1011.7 1011.7 0.2
11/01:00pm 27.7 26.6 20.3 64 4.9 ESE 26 35 14 19 1012.0 1012.0 0.2
11/12:30pm 27.9 27.3 20.5 64 4.9 ESE 24 33 13 18 1012.3 1012.3 0.2
11/12:00pm 26.6 26.6 20.9 71 3.8 ESE 22 30 12 16 1012.5 1012.5 0.2
11/11:34am 27.6 29.3 22.3 73 3.6 E 17 24 9 13 1012.8 1012.8 0.2
11/11:30am 27.2 29.5 23.4 80 2.6 ENE 17 24 9 13 1012.8 1012.8 0.2
11/11:23am 25.7 27.0 22.6 83 2.1 ENE 20 32 11 17 1013.0 1013.0 0.2
11/11:00am 26.1 27.2 22.4 80 2.5 E 20 28 11 15 1013.0 1013.0 0.2
11/10:30am 27.5 29.9 22.2 73 3.6 ENE 13 20 7 11 1013.3 1013.3 0.2
11/10:12am 27.1 29.9 21.6 72 3.7 ESE 9 15 5 8 1013.4 1013.4 0.2
11/10:00am 26.2 29.0 22.3 79 2.6 ESE 11 15 6 8 1013.5 1013.5 0.2
11/09:59am 26.3 29.4 22.8 81 2.4 ESE 11 15 6 8 1013.5 1013.5 0.2
11/09:30am 28.0 31.8 22.7 73 3.6 E 7 13 4 7 1013.5 1013.5 0.2
11/09:00am 25.7 29.1 22.0 80 2.5 WSW 7 11 4 6 1013.7 1013.7 37.2
11/08:30am 24.1 27.2 22.2 89 1.3 W 9 13 5 7 1013.7 1013.7 37.2
11/08:00am 23.2 26.5 22.5 96 0.5 WSW 9 13 5 7 1013.5 1013.5 37.2
11/07:30am 22.5 25.2 22.2 98 0.2 NW 11 15 6 8 1013.2 1013.2 37.2
11/07:29am 22.4 25.1 22.1 98 0.2 NW 11 15 6 8 1013.2 1013.2 37.2
11/07:02am 22.3 24.9 22.0 98 0.2 WNW 11 13 6 7 1013.1 1013.1 36.0
11/07:00am 22.2 24.8 21.9 98 0.2 W 11 13 6 7 1013.1 1013.1 35.8
11/06:52am 22.2 25.2 21.9 98 0.2 W 9 13 5 7 1013.0 1013.0 35.2
11/06:48am 22.2 24.8 21.9 98 0.2 WSW 11 13 6 7 1013.0 1013.0 35.0
11/06:30am 22.0 24.8 21.5 97 0.3 NW 9 13 5 7 1012.7 1012.7 34.4
11/06:23am 22.0 24.8 21.5 97 0.3 W 9 11 5 6 1012.6 1012.6 32.8
11/06:00am 22.1 24.4 21.4 96 0.5 NW 11 15 6 8 1012.3 1012.3 27.0
11/05:50am 22.4 25.3 21.7 96 0.5 W 9 13 5 7 1012.3 1012.3 24.8
11/05:30am 22.3 24.1 21.8 97 0.3 WNW 15 20 8 11 1012.0 1012.0 23.8
11/05:28am 22.3 24.1 21.8 97 0.3 W 15 20 8 11 1012.0 1012.0 23.6
11/05:00am 22.4 25.4 21.9 97 0.3 NW 9 11 5 6 1011.6 1011.6 22.0
11/04:30am 22.7 25.7 22.0 96 0.5 NNW 9 13 5 7 1011.2 1011.2 16.2
11/04:24am 22.7 26.1 22.0 96 0.5 N 7 13 4 7 1011.1 1011.1 16.0
11/04:10am 22.7 26.3 22.0 96 0.5 N 6 11 3 6 1011.2 1011.2 13.8
11/04:00am 22.7 26.1 22.0 96 0.5 SSE 7 9 4 5 1011.1 1011.1 10.4
11/03:41am 22.9 27.0 22.2 96 0.5 SSW 4 7 2 4 1011.0 1011.0 6.2
11/03:34am 22.9 26.4 22.2 96 0.5 SSW 7 9 4 5 1010.8 1010.8 5.6
11/03:30am 22.9 26.4 22.2 96 0.5 SSW 7 9 4 5 1010.9 1010.9 5.6
11/03:02am 22.7 25.3 22.0 96 0.5 NNW 11 13 6 7 1010.4 1010.4 5.4
11/03:00am 22.7 25.3 22.0 96 0.5 NNW 11 13 6 7 1010.4 1010.4 5.4
11/02:51am 22.7 25.7 22.0 96 0.5 WNW 9 13 5 7 1010.6 1010.6 5.4
11/02:35am 22.9 26.0 22.1 95 0.5 SW 9 13 5 7 1010.8 1010.8 3.8
11/02:30am 23.0 26.5 22.2 95 0.5 SSW 7 13 4 7 1010.8 1010.8 3.2
11/02:18am 23.0 26.5 22.2 95 0.5 WSW 7 9 4 5 1010.7 1010.7 2.8
11/02:00am 22.9 25.1 21.9 94 0.7 WNW 13 13 7 7 1010.7 1010.7 2.8
11/01:58am 22.9 25.5 21.9 94 0.7 WNW 11 13 6 7 1010.7 1010.7 2.8
11/01:41am 23.0 26.3 21.8 93 0.8 NNE 7 9 4 5 1010.9 1010.9 2.6
11/01:30am 23.0 25.8 21.5 91 1.0 E 9 17 5 9 1011.0 1011.0 1.6
11/01:00am 23.2 24.6 21.1 88 1.4 ESE 15 20 8 11 1011.3 1011.3 1.0
11/12:30am 23.6 28.5 22.4 93 0.8 CALM 0 0 0 0 1011.6 1011.6 0.2
11/12:00am 23.8 28.6 22.2 91 1.1 CALM 0 0 0 0 1011.8 1011.8 0.2
 
Date/Time
EST
Temp
°C
App
Temp
°C
Dew
Point
°C
Rel
Hum
%
Delta-T
°C
Wind Press
QNH
hPa
Press
MSL
hPa
Rain since
9am
mm
Dir  Spd
km/h
Gust
km/h
Spd
kts
Gust
kts
10/11:30pm 23.8 27.4 22.1 90 1.1 SSW 6 9 3 5 1012.0 1012.0 0.2
10/11:00pm 23.7 26.7 22.0 90 1.1 SW 9 11 5 6 1012.3 1012.3 0.2
10/10:30pm 23.9 26.8 21.8 88 1.4 SW 9 11 5 6 1012.6 1012.6 0.2
10/10:00pm 23.8 26.7 21.7 88 1.4 S 9 11 5 6 1012.4 1012.4 0.2
10/09:30pm 24.1 26.9 21.6 86 1.7 SSE 9 11 5 6 1012.1 1012.1 0.2
10/09:00pm 24.8 27.9 21.5 82 2.2 S 7 9 4 5 1011.9 1011.9 0.2
10/08:30pm 25.3 28.6 21.8 81 2.3 S 7 9 4 5 1011.6 1011.6 0.2
10/08:00pm 24.9 27.8 21.8 83 2.1 SSE 9 11 5 6 1011.4 1011.4 0.2
10/07:30pm 25.4 28.5 21.5 79 2.6 ESE 7 9 4 5 1011.0 1011.0 0.2
10/07:00pm 25.7 28.0 21.4 77 2.9 ESE 11 13 6 7 1010.5 1010.5 0.2
10/06:30pm 26.2 29.0 21.6 76 3.1 ESE 9 13 5 7 1010.4 1010.4 0.2
10/06:00pm 26.6 27.6 21.8 75 3.2 ESE 19 24 10 13 1009.9 1009.9 0.2
10/05:30pm 27.0 27.5 21.1 70 3.9 SE 20 24 11 13 1009.7 1009.7 0.2
10/05:00pm 28.2 28.2 20.2 62 5.3 ESE 20 28 11 15 1009.5 1009.5 0.2
10/04:30pm 28.7 28.6 20.7 62 5.3 ESE 22 30 12 16 1009.3 1009.3 0.2
10/04:00pm 28.3 28.1 19.8 60 5.6 SE 20 30 11 16 1009.3 1009.3 0.2
10/03:30pm 29.6 28.8 19.3 54 6.7 E 22 33 12 18 1009.3 1009.3 0.2
10/03:00pm 30.3 30.1 20.5 55 6.5 ESE 22 32 12 17 1009.4 1009.4 0.2
10/02:30pm 30.2 29.3 19.9 54 6.8 SE 24 30 13 16 1009.5 1009.5 0.2
10/02:00pm 30.0 29.6 19.4 53 6.9 ESE 20 30 11 16 1009.6 1009.6 0.2
10/01:30pm 30.3 30.2 20.8 56 6.3 ESE 22 30 12 16 1009.9 1009.9 0.2
10/01:00pm 31.3 30.7 20.6 53 7.1 ESE 24 39 13 21 1010.2 1010.2 0.2
10/12:30pm 30.3 30.0 21.1 58 6.1 ESE 24 33 13 18 1010.6 1010.6 0.2
10/12:00pm 30.7 30.1 19.7 52 7.2 ESE 22 32 12 17 1011.0 1011.0 0.2
10/11:30am 30.4 30.4 19.7 52 7.0 ESE 19 26 10 14 1011.4 1011.4 0.2
10/11:00am 30.8 31.6 20.7 55 6.7 ESE 17 26 9 14 1011.6 1011.6 0.2
10/10:30am 29.4 30.6 20.0 57 6.2 SE 13 24 7 13 1012.1 1012.1 0.2
10/10:00am 28.7 29.0 20.4 60 5.5 SE 19 24 10 13 1012.4 1012.4 0.2
10/09:30am 29.1 29.7 21.3 62 5.2 SE 20 32 11 17 1012.6 1012.6 0.0
10/09:00am 28.5 29.2 20.5 62 5.3 SSE 17 26 9 14 1012.5 1012.5 0.2
10/08:30am 28.0 29.9 21.3 67 4.5 ESE 13 20 7 11 1012.4 1012.4 0.2
10/08:00am 27.2 30.0 21.5 71 3.8 ESE 9 13 5 7 1012.3 1012.3 0.2
10/07:30am 26.2 29.5 21.8 77 2.9 S 7 9 4 5 1012.0 1012.0 0.2
10/07:00am 25.1 29.4 22.6 86 1.7 SW 4 9 2 5 1011.8 1011.8 0.2
10/06:30am 23.3 27.0 22.6 96 0.5 W 7 9 4 5 1011.6 1011.6 0.2
10/06:00am 22.0 26.5 21.5 97 0.3 CALM 0 0 0 0 1011.3 1011.3 0.2
10/05:30am 22.3 26.4 21.6 96 0.5 S 2 7 1 4 1010.8 1010.8 0.2
10/05:00am 22.3 26.9 21.8 97 0.3 CALM 0 0 0 0 1010.8 1010.8 0.2
10/04:30am 22.3 26.9 21.8 97 0.3 CALM 0 0 0 0 1010.4 1010.4 0.2
10/04:00am 22.4 26.3 21.9 97 0.3 WNW 4 6 2 3 1010.5 1010.5 0.2

Other Formats:

Comma delimited format used in spreadsheet applications
http://www.bom.gov.au/fwo/IDQ60801/IDQ60801.94280.axf

JavaScript Object Notation format (JSON) in row-major order
http://www.bom.gov.au/fwo/IDQ60801/IDQ60801.94280.json